sensor_id;sensor_type;location;lat;lon;timestamp;temperature;humidity
48988;DHT22;34799;51.440;-2.534;2023-06-26T00:01:38;17.40;99.90
48988;DHT22;34799;51.440;-2.534;2023-06-26T00:04:08;17.30;99.90
48988;DHT22;34799;51.440;-2.534;2023-06-26T00:06:41;17.30;99.90
48988;DHT22;34799;51.440;-2.534;2023-06-26T00:09:08;17.30;99.90
48988;DHT22;34799;51.440;-2.534;2023-06-26T00:11:35;17.30;99.90
48988;DHT22;34799;51.440;-2.534;2023-06-26T00:14:02;17.30;99.90
48988;DHT22;34799;51.440;-2.534;2023-06-26T00:16:29;17.30;99.90
48988;DHT22;34799;51.440;-2.534;2023-06-26T00:18:59;17.30;99.90
48988;DHT22;34799;51.440;-2.534;2023-06-26T00:21:27;17.30;99.90
48988;DHT22;34799;51.440;-2.534;2023-06-26T00:23:54;17.20;99.90
48988;DHT22;34799;51.440;-2.534;2023-06-26T00:26:21;17.30;99.90
48988;DHT22;34799;51.440;-2.534;2023-06-26T00:28:48;17.20;99.90
48988;DHT22;34799;51.440;-2.534;2023-06-26T00:31:15;17.20;99.90
48988;DHT22;34799;51.440;-2.534;2023-06-26T00:33:43;17.10;99.90
48988;DHT22;34799;51.440;-2.534;2023-06-26T00:36:10;17.10;99.90
48988;DHT22;34799;51.440;-2.534;2023-06-26T00:38:37;17.10;99.90
48988;DHT22;34799;51.440;-2.534;2023-06-26T00:41:05;17.00;99.90
48988;DHT22;34799;51.440;-2.534;2023-06-26T00:43:39;16.90;99.90
48988;DHT22;34799;51.440;-2.534;2023-06-26T00:46:12;16.90;99.90
48988;DHT22;34799;51.440;-2.534;2023-06-26T00:48:42;16.90;99.90
48988;DHT22;34799;51.440;-2.534;2023-06-26T00:51:11;16.90;99.90
48988;DHT22;34799;51.440;-2.534;2023-06-26T00:53:39;16.90;99.90
48988;DHT22;34799;51.440;-2.534;2023-06-26T00:56:06;16.90;99.90
48988;DHT22;34799;51.440;-2.534;2023-06-26T00:58:35;17.00;99.90
48988;DHT22;34799;51.440;-2.534;2023-06-26T01:01:03;17.10;99.90
48988;DHT22;34799;51.440;-2.534;2023-06-26T01:03:33;17.10;99.90
48988;DHT22;34799;51.440;-2.534;2023-06-26T01:06:01;17.20;99.90
48988;DHT22;34799;51.440;-2.534;2023-06-26T01:08:31;17.20;99.90
48988;DHT22;34799;51.440;-2.534;2023-06-26T01:10:59;17.20;99.90
48988;DHT22;34799;51.440;-2.534;2023-06-26T01:13:27;17.10;99.90
48988;DHT22;34799;51.440;-2.534;2023-06-26T01:15:58;17.10;99.90
48988;DHT22;34799;51.440;-2.534;2023-06-26T01:18:26;17.10;99.90
48988;DHT22;34799;51.440;-2.534;2023-06-26T01:20:53;17.10;99.90
48988;DHT22;34799;51.440;-2.534;2023-06-26T01:26:20;17.00;99.90
48988;DHT22;34799;51.440;-2.534;2023-06-26T01:28:50;17.00;99.90
48988;DHT22;34799;51.440;-2.534;2023-06-26T01:31:19;17.00;99.90
48988;DHT22;34799;51.440;-2.534;2023-06-26T01:33:47;17.00;99.90
48988;DHT22;34799;51.440;-2.534;2023-06-26T01:36:14;17.10;99.90
48988;DHT22;34799;51.440;-2.534;2023-06-26T01:38:41;17.10;99.90
48988;DHT22;34799;51.440;-2.534;2023-06-26T01:41:08;17.10;99.90
48988;DHT22;34799;51.440;-2.534;2023-06-26T01:55:12;16.90;99.90
48988;DHT22;34799;51.440;-2.534;2023-06-26T01:57:42;17.00;99.90
48988;DHT22;34799;51.440;-2.534;2023-06-26T02:00:13;17.00;99.90
48988;DHT22;34799;51.440;-2.534;2023-06-26T02:02:41;17.00;99.90
48988;DHT22;34799;51.440;-2.534;2023-06-26T02:05:13;17.00;99.90
48988;DHT22;34799;51.440;-2.534;2023-06-26T02:07:41;17.00;99.90
48988;DHT22;34799;51.440;-2.534;2023-06-26T02:10:11;17.00;99.90
48988;DHT22;34799;51.440;-2.534;2023-06-26T02:12:39;17.00;99.90
48988;DHT22;34799;51.440;-2.534;2023-06-26T02:15:07;17.00;99.90
48988;DHT22;34799;51.440;-2.534;2023-06-26T02:17:35;17.00;99.90
48988;DHT22;34799;51.440;-2.534;2023-06-26T02:20:02;17.10;99.90
48988;DHT22;34799;51.440;-2.534;2023-06-26T02:22:29;16.00;99.90
48988;DHT22;34799;51.440;-2.534;2023-06-26T02:24:56;17.00;99.90
48988;DHT22;34799;51.440;-2.534;2023-06-26T02:27:26;17.00;99.90
48988;DHT22;34799;51.440;-2.534;2023-06-26T02:29:54;17.00;99.90
48988;DHT22;34799;51.440;-2.534;2023-06-26T02:32:22;17.00;99.90
48988;DHT22;34799;51.440;-2.534;2023-06-26T02:34:49;17.00;99.90
48988;DHT22;34799;51.440;-2.534;2023-06-26T02:37:19;16.90;99.90
48988;DHT22;34799;51.440;-2.534;2023-06-26T02:39:46;16.80;99.90
48988;DHT22;34799;51.440;-2.534;2023-06-26T02:42:14;16.80;99.90
48988;DHT22;34799;51.440;-2.534;2023-06-26T02:44:41;16.80;99.90
48988;DHT22;34799;51.440;-2.534;2023-06-26T02:47:08;16.80;99.90
48988;DHT22;34799;51.440;-2.534;2023-06-26T02:49:40;16.90;99.90
48988;DHT22;34799;51.440;-2.534;2023-06-26T02:52:07;16.90;99.90
48988;DHT22;34799;51.440;-2.534;2023-06-26T02:54:34;17.00;99.90
48988;DHT22;34799;51.440;-2.534;2023-06-26T02:57:04;17.00;99.90
48988;DHT22;34799;51.440;-2.534;2023-06-26T02:59:32;17.00;99.90
48988;DHT22;34799;51.440;-2.534;2023-06-26T03:01:59;16.90;99.90
48988;DHT22;34799;51.440;-2.534;2023-06-26T03:04:31;16.90;99.90
48988;DHT22;34799;51.440;-2.534;2023-06-26T03:07:01;16.90;99.90
48988;DHT22;34799;51.440;-2.534;2023-06-26T03:09:28;16.90;99.90
48988;DHT22;34799;51.440;-2.534;2023-06-26T03:11:55;16.80;99.90
48988;DHT22;34799;51.440;-2.534;2023-06-26T03:14:22;16.80;99.90
48988;DHT22;34799;51.440;-2.534;2023-06-26T03:16:50;16.80;99.90
48988;DHT22;34799;51.440;-2.534;2023-06-26T03:19:20;16.80;99.90
48988;DHT22;34799;51.440;-2.534;2023-06-26T03:22:15;16.80;99.90
48988;DHT22;34799;51.440;-2.534;2023-06-26T03:24:44;16.80;99.90
48988;DHT22;34799;51.440;-2.534;2023-06-26T03:27:12;16.80;99.90
48988;DHT22;34799;51.440;-2.534;2023-06-26T03:29:39;16.70;99.90
48988;DHT22;34799;51.440;-2.534;2023-06-26T03:32:07;16.60;99.90
48988;DHT22;34799;51.440;-2.534;2023-06-26T03:34:34;16.60;99.90
48988;DHT22;34799;51.440;-2.534;2023-06-26T03:37:01;16.60;99.90
48988;DHT22;34799;51.440;-2.534;2023-06-26T03:39:29;16.70;99.90
48988;DHT22;34799;51.440;-2.534;2023-06-26T03:41:56;16.70;99.90
48988;DHT22;34799;51.440;-2.534;2023-06-26T03:44:28;16.60;99.90
48988;DHT22;34799;51.440;-2.534;2023-06-26T03:46:56;16.60;99.90
48988;DHT22;34799;51.440;-2.534;2023-06-26T03:49:24;16.60;99.90
48988;DHT22;34799;51.440;-2.534;2023-06-26T03:51:52;16.70;99.90
48988;DHT22;34799;51.440;-2.534;2023-06-26T03:54:19;16.60;99.90
48988;DHT22;34799;51.440;-2.534;2023-06-26T03:56:46;16.60;99.90
48988;DHT22;34799;51.440;-2.534;2023-06-26T03:59:14;16.60;99.90
48988;DHT22;34799;51.440;-2.534;2023-06-26T04:01:42;16.60;99.90
48988;DHT22;34799;51.440;-2.534;2023-06-26T04:04:09;16.50;99.90
48988;DHT22;34799;51.440;-2.534;2023-06-26T04:06:36;16.50;99.90
48988;DHT22;34799;51.440;-2.534;2023-06-26T04:09:03;16.50;99.90
48988;DHT22;34799;51.440;-2.534;2023-06-26T04:11:31;16.50;99.90
48988;DHT22;34799;51.440;-2.534;2023-06-26T04:13:58;16.50;99.90
48988;DHT22;34799;51.440;-2.534;2023-06-26T04:16:25;16.50;99.90
48988;DHT22;34799;51.440;-2.534;2023-06-26T04:18:54;16.50;99.90
48988;DHT22;34799;51.440;-2.534;2023-06-26T04:21:23;16.50;99.90
48988;DHT22;34799;51.440;-2.534;2023-06-26T04:23:53;16.50;99.90
48988;DHT22;34799;51.440;-2.534;2023-06-26T04:26:21;16.50;99.90
48988;DHT22;34799;51.440;-2.534;2023-06-26T04:28:48;16.50;99.90
48988;DHT22;34799;51.440;-2.534;2023-06-26T04:31:15;16.40;99.90
48988;DHT22;34799;51.440;-2.534;2023-06-26T04:33:42;16.40;99.90
48988;DHT22;34799;51.440;-2.534;2023-06-26T04:36:09;16.50;99.90
48988;DHT22;34799;51.440;-2.534;2023-06-26T04:38:36;16.30;99.90
48988;DHT22;34799;51.440;-2.534;2023-06-26T04:41:03;16.40;99.90
48988;DHT22;34799;51.440;-2.534;2023-06-26T04:43:30;16.40;99.90
48988;DHT22;34799;51.440;-2.534;2023-06-26T04:45:58;16.40;99.90
48988;DHT22;34799;51.440;-2.534;2023-06-26T04:48:25;16.40;99.90
48988;DHT22;34799;51.440;-2.534;2023-06-26T04:50:55;16.40;99.90
48988;DHT22;34799;51.440;-2.534;2023-06-26T04:53:23;16.40;99.90
48988;DHT22;34799;51.440;-2.534;2023-06-26T04:55:53;16.50;99.90
48988;DHT22;34799;51.440;-2.534;2023-06-26T04:58:20;16.40;99.90
48988;DHT22;34799;51.440;-2.534;2023-06-26T05:00:47;16.50;99.90
48988;DHT22;34799;51.440;-2.534;2023-06-26T05:03:17;16.60;99.90
48988;DHT22;34799;51.440;-2.534;2023-06-26T05:05:45;16.60;99.90
48988;DHT22;34799;51.440;-2.534;2023-06-26T05:08:21;16.60;99.90
48988;DHT22;34799;51.440;-2.534;2023-06-26T05:10:50;16.60;99.90
48988;DHT22;34799;51.440;-2.534;2023-06-26T05:13:17;16.60;99.90
48988;DHT22;34799;51.440;-2.534;2023-06-26T05:15:46;16.60;99.90
48988;DHT22;34799;51.440;-2.534;2023-06-26T05:18:13;16.60;99.90
48988;DHT22;34799;51.440;-2.534;2023-06-26T05:20:41;16.70;99.90
48988;DHT22;34799;51.440;-2.534;2023-06-26T05:23:08;16.70;99.90
48988;DHT22;34799;51.440;-2.534;2023-06-26T05:25:37;16.60;99.90
48988;DHT22;34799;51.440;-2.534;2023-06-26T05:28:05;16.70;99.90
48988;DHT22;34799;51.440;-2.534;2023-06-26T05:30:32;16.80;99.90
48988;DHT22;34799;51.440;-2.534;2023-06-26T05:33:03;17.00;99.90
48988;DHT22;34799;51.440;-2.534;2023-06-26T05:35:33;17.10;99.90
48988;DHT22;34799;51.440;-2.534;2023-06-26T05:38:01;17.10;99.90
48988;DHT22;34799;51.440;-2.534;2023-06-26T05:40:29;17.20;99.90
48988;DHT22;34799;51.440;-2.534;2023-06-26T05:42:56;17.30;99.90
48988;DHT22;34799;51.440;-2.534;2023-06-26T05:45:23;17.30;99.90
48988;DHT22;34799;51.440;-2.534;2023-06-26T05:47:50;17.30;99.90
48988;DHT22;34799;51.440;-2.534;2023-06-26T05:50:19;17.30;99.90
48988;DHT22;34799;51.440;-2.534;2023-06-26T05:52:48;17.30;99.90
48988;DHT22;34799;51.440;-2.534;2023-06-26T05:55:15;17.30;99.90
48988;DHT22;34799;51.440;-2.534;2023-06-26T05:57:43;17.30;99.90
48988;DHT22;34799;51.440;-2.534;2023-06-26T06:00:12;17.00;99.90
48988;DHT22;34799;51.440;-2.534;2023-06-26T06:02:42;17.20;99.90
48988;DHT22;34799;51.440;-2.534;2023-06-26T06:05:11;17.20;99.90
48988;DHT22;34799;51.440;-2.534;2023-06-26T06:07:39;17.20;99.90
48988;DHT22;34799;51.440;-2.534;2023-06-26T06:10:06;17.30;99.90
48988;DHT22;34799;51.440;-2.534;2023-06-26T06:12:34;17.20;99.90
48988;DHT22;34799;51.440;-2.534;2023-06-26T06:15:01;17.20;99.90
48988;DHT22;34799;51.440;-2.534;2023-06-26T06:17:28;17.20;99.90
48988;DHT22;34799;51.440;-2.534;2023-06-26T06:19:56;17.20;99.90
48988;DHT22;34799;51.440;-2.534;2023-06-26T06:22:23;17.20;99.90
48988;DHT22;34799;51.440;-2.534;2023-06-26T06:24:51;17.30;99.90
48988;DHT22;34799;51.440;-2.534;2023-06-26T06:27:18;17.30;99.90
48988;DHT22;34799;51.440;-2.534;2023-06-26T06:29:45;17.40;99.90
48988;DHT22;34799;51.440;-2.534;2023-06-26T06:32:12;17.40;99.90
48988;DHT22;34799;51.440;-2.534;2023-06-26T06:34:39;17.40;99.90
48988;DHT22;34799;51.440;-2.534;2023-06-26T06:37:06;17.50;99.90
48988;DHT22;34799;51.440;-2.534;2023-06-26T06:39:33;17.50;99.90
48988;DHT22;34799;51.440;-2.534;2023-06-26T06:42:00;17.50;99.90
48988;DHT22;34799;51.440;-2.534;2023-06-26T06:44:28;17.60;99.90
48988;DHT22;34799;51.440;-2.534;2023-06-26T06:46:58;17.70;99.90
48988;DHT22;34799;51.440;-2.534;2023-06-26T06:49:26;17.60;99.90
48988;DHT22;34799;51.440;-2.534;2023-06-26T06:51:54;17.60;99.90
48988;DHT22;34799;51.440;-2.534;2023-06-26T06:54:21;17.60;99.90
48988;DHT22;34799;51.440;-2.534;2023-06-26T06:56:48;17.60;99.90
48988;DHT22;34799;51.440;-2.534;2023-06-26T06:59:15;17.50;99.90
48988;DHT22;34799;51.440;-2.534;2023-06-26T07:01:43;17.60;99.90
48988;DHT22;34799;51.440;-2.534;2023-06-26T07:04:10;17.60;99.90
48988;DHT22;34799;51.440;-2.534;2023-06-26T07:06:37;17.70;99.90
48988;DHT22;34799;51.440;-2.534;2023-06-26T07:09:04;17.80;99.90
48988;DHT22;34799;51.440;-2.534;2023-06-26T07:11:32;17.80;99.90
48988;DHT22;34799;51.440;-2.534;2023-06-26T07:13:59;17.90;99.90
48988;DHT22;34799;51.440;-2.534;2023-06-26T07:16:26;17.90;99.90
48988;DHT22;34799;51.440;-2.534;2023-06-26T07:18:53;17.90;99.90
48988;DHT22;34799;51.440;-2.534;2023-06-26T07:21:21;17.90;99.90
48988;DHT22;34799;51.440;-2.534;2023-06-26T07:23:51;17.90;99.90
48988;DHT22;34799;51.440;-2.534;2023-06-26T07:26:18;17.90;99.90
48988;DHT22;34799;51.440;-2.534;2023-06-26T07:28:48;17.90;99.90
48988;DHT22;34799;51.440;-2.534;2023-06-26T07:31:16;17.90;99.90
48988;DHT22;34799;51.440;-2.534;2023-06-26T07:33:43;17.90;99.90
48988;DHT22;34799;51.440;-2.534;2023-06-26T07:36:10;18.00;99.90
48988;DHT22;34799;51.440;-2.534;2023-06-26T07:38:37;18.10;99.90
48988;DHT22;34799;51.440;-2.534;2023-06-26T07:41:04;18.30;99.90
48988;DHT22;34799;51.440;-2.534;2023-06-26T07:43:31;18.40;99.90
48988;DHT22;34799;51.440;-2.534;2023-06-26T07:45:58;18.50;99.90
48988;DHT22;34799;51.440;-2.534;2023-06-26T07:48:26;19.70;99.90
48988;DHT22;34799;51.440;-2.534;2023-06-26T07:50:53;18.60;99.90
48988;DHT22;34799;51.440;-2.534;2023-06-26T07:53:20;18.70;99.90
48988;DHT22;34799;51.440;-2.534;2023-06-26T07:55:47;18.70;99.90
48988;DHT22;34799;51.440;-2.534;2023-06-26T07:58:14;18.70;99.90
48988;DHT22;34799;51.440;-2.534;2023-06-26T08:00:41;18.80;99.90
48988;DHT22;34799;51.440;-2.534;2023-06-26T08:03:08;18.90;99.90
48988;DHT22;34799;51.440;-2.534;2023-06-26T08:05:38;18.90;99.90
48988;DHT22;34799;51.440;-2.534;2023-06-26T08:08:05;18.90;99.90
48988;DHT22;34799;51.440;-2.534;2023-06-26T08:10:33;18.90;99.90
48988;DHT22;34799;51.440;-2.534;2023-06-26T08:13:03;18.90;99.90
48988;DHT22;34799;51.440;-2.534;2023-06-26T08:15:31;19.00;99.90
48988;DHT22;34799;51.440;-2.534;2023-06-26T08:17:58;19.10;99.90
48988;DHT22;34799;51.440;-2.534;2023-06-26T08:20:25;19.10;99.90
48988;DHT22;34799;51.440;-2.534;2023-06-26T08:22:52;19.10;99.90
48988;DHT22;34799;51.440;-2.534;2023-06-26T08:25:21;19.10;99.90
48988;DHT22;34799;51.440;-2.534;2023-06-26T08:27:48;19.10;99.90
48988;DHT22;34799;51.440;-2.534;2023-06-26T08:30:16;19.10;99.90
48988;DHT22;34799;51.440;-2.534;2023-06-26T08:32:43;19.10;99.90
48988;DHT22;34799;51.440;-2.534;2023-06-26T08:35:10;19.00;99.90
48988;DHT22;34799;51.440;-2.534;2023-06-26T08:37:37;18.90;99.90
48988;DHT22;34799;51.440;-2.534;2023-06-26T08:40:04;19.00;99.90
48988;DHT22;34799;51.440;-2.534;2023-06-26T08:42:32;19.00;99.90
48988;DHT22;34799;51.440;-2.534;2023-06-26T08:44:59;19.20;99.90
48988;DHT22;34799;51.440;-2.534;2023-06-26T08:47:27;19.30;99.90
48988;DHT22;34799;51.440;-2.534;2023-06-26T08:50:07;19.30;99.90
48988;DHT22;34799;51.440;-2.534;2023-06-26T08:52:46;19.40;99.90
48988;DHT22;34799;51.440;-2.534;2023-06-26T08:55:15;19.30;99.90
48988;DHT22;34799;51.440;-2.534;2023-06-26T08:57:43;19.30;99.90
48988;DHT22;34799;51.440;-2.534;2023-06-26T09:00:11;19.30;99.90
48988;DHT22;34799;51.440;-2.534;2023-06-26T09:02:40;19.40;99.90
48988;DHT22;34799;51.440;-2.534;2023-06-26T09:05:09;19.40;99.90
48988;DHT22;34799;51.440;-2.534;2023-06-26T09:07:36;19.40;99.90
48988;DHT22;34799;51.440;-2.534;2023-06-26T09:10:03;19.60;99.90
48988;DHT22;34799;51.440;-2.534;2023-06-26T09:12:31;19.70;99.90
48988;DHT22;34799;51.440;-2.534;2023-06-26T09:14:58;19.70;99.90
48988;DHT22;34799;51.440;-2.534;2023-06-26T09:17:30;19.80;99.90
48988;DHT22;34799;51.440;-2.534;2023-06-26T09:19:59;19.90;99.90
48988;DHT22;34799;51.440;-2.534;2023-06-26T09:22:26;19.90;99.90
48988;DHT22;34799;51.440;-2.534;2023-06-26T09:24:53;20.00;99.90
48988;DHT22;34799;51.440;-2.534;2023-06-26T09:27:21;19.90;99.90
48988;DHT22;34799;51.440;-2.534;2023-06-26T09:29:50;20.00;99.90
48988;DHT22;34799;51.440;-2.534;2023-06-26T09:32:17;19.90;99.90
48988;DHT22;34799;51.440;-2.534;2023-06-26T09:34:44;19.80;99.90
48988;DHT22;34799;51.440;-2.534;2023-06-26T09:37:12;19.90;99.90
48988;DHT22;34799;51.440;-2.534;2023-06-26T09:39:40;19.90;99.90
48988;DHT22;34799;51.440;-2.534;2023-06-26T09:42:07;19.90;99.90
48988;DHT22;34799;51.440;-2.534;2023-06-26T09:44:34;19.90;99.90
48988;DHT22;34799;51.440;-2.534;2023-06-26T09:47:04;19.80;99.90
48988;DHT22;34799;51.440;-2.534;2023-06-26T09:49:32;19.80;99.90
48988;DHT22;34799;51.440;-2.534;2023-06-26T09:52:01;19.90;99.90
48988;DHT22;34799;51.440;-2.534;2023-06-26T09:54:29;20.00;99.90
48988;DHT22;34799;51.440;-2.534;2023-06-26T09:57:16;20.00;99.90
48988;DHT22;34799;51.440;-2.534;2023-06-26T09:59:44;20.00;99.90
48988;DHT22;34799;51.440;-2.534;2023-06-26T10:02:16;20.10;99.90
48988;DHT22;34799;51.440;-2.534;2023-06-26T10:04:43;20.10;99.90
48988;DHT22;34799;51.440;-2.534;2023-06-26T10:07:11;20.30;99.90
48988;DHT22;34799;51.440;-2.534;2023-06-26T10:09:41;20.40;99.90
48988;DHT22;34799;51.440;-2.534;2023-06-26T10:12:30;20.50;99.90
48988;DHT22;34799;51.440;-2.534;2023-06-26T10:14:58;20.50;99.70
48988;DHT22;34799;51.440;-2.534;2023-06-26T10:17:28;20.50;99.90
48988;DHT22;34799;51.440;-2.534;2023-06-26T10:19:58;20.50;99.90
48988;DHT22;34799;51.440;-2.534;2023-06-26T10:22:36;20.50;99.90
48988;DHT22;34799;51.440;-2.534;2023-06-26T10:25:06;20.50;99.90
48988;DHT22;34799;51.440;-2.534;2023-06-26T10:27:42;20.60;99.60
48988;DHT22;34799;51.440;-2.534;2023-06-26T10:30:17;20.70;99.90
48988;DHT22;34799;51.440;-2.534;2023-06-26T10:32:46;20.90;99.20
48988;DHT22;34799;51.440;-2.534;2023-06-26T10:35:14;21.10;98.70
48988;DHT22;34799;51.440;-2.534;2023-06-26T10:37:46;21.10;98.40
48988;DHT22;34799;51.440;-2.534;2023-06-26T10:40:20;21.20;98.90
48988;DHT22;34799;51.440;-2.534;2023-06-26T10:42:48;21.40;98.90
48988;DHT22;34799;51.440;-2.534;2023-06-26T10:45:17;21.60;99.00
48988;DHT22;34799;51.440;-2.534;2023-06-26T10:47:52;21.50;99.10
48988;DHT22;34799;51.440;-2.534;2023-06-26T10:50:30;21.40;98.40
48988;DHT22;34799;51.440;-2.534;2023-06-26T10:55:42;21.40;98.00
48988;DHT22;34799;51.440;-2.534;2023-06-26T11:03:47;21.30;97.60
48988;DHT22;34799;51.440;-2.534;2023-06-26T11:06:20;21.30;97.60
48988;DHT22;34799;51.440;-2.534;2023-06-26T11:11:22;21.20;97.50
48988;DHT22;34799;51.440;-2.534;2023-06-26T11:13:49;21.20;98.00
48988;DHT22;34799;51.440;-2.534;2023-06-26T11:16:16;21.20;98.50
48988;DHT22;34799;51.440;-2.534;2023-06-26T11:18:45;21.30;98.10
48988;DHT22;34799;51.440;-2.534;2023-06-26T11:21:12;21.50;98.50
48988;DHT22;34799;51.440;-2.534;2023-06-26T11:23:45;21.60;98.70
48988;DHT22;34799;51.440;-2.534;2023-06-26T11:26:15;21.50;97.20
48988;DHT22;34799;51.440;-2.534;2023-06-26T11:28:50;21.50;97.40
48988;DHT22;34799;51.440;-2.534;2023-06-26T11:31:27;21.60;98.20
48988;DHT22;34799;51.440;-2.534;2023-06-26T11:33:54;21.70;98.10
48988;DHT22;34799;51.440;-2.534;2023-06-26T11:36:24;21.90;97.90
48988;DHT22;34799;51.440;-2.534;2023-06-26T11:38:59;22.80;97.90
48988;DHT22;34799;51.440;-2.534;2023-06-26T11:41:30;22.00;97.50
48988;DHT22;34799;51.440;-2.534;2023-06-26T11:44:06;21.90;97.10
48988;DHT22;34799;51.440;-2.534;2023-06-26T11:46:37;22.00;97.00
48988;DHT22;34799;51.440;-2.534;2023-06-26T11:49:05;22.10;96.40
48988;DHT22;34799;51.440;-2.534;2023-06-26T11:51:33;22.10;96.70
48988;DHT22;34799;51.440;-2.534;2023-06-26T11:54:02;22.10;97.00
48988;DHT22;34799;51.440;-2.534;2023-06-26T11:56:32;22.10;97.10
48988;DHT22;34799;51.440;-2.534;2023-06-26T11:59:11;21.90;97.20
48988;DHT22;34799;51.440;-2.534;2023-06-26T12:01:43;22.00;97.80
48988;DHT22;34799;51.440;-2.534;2023-06-26T12:04:16;21.90;98.00
48988;DHT22;34799;51.440;-2.534;2023-06-26T12:06:47;22.00;97.20
48988;DHT22;34799;51.440;-2.534;2023-06-26T12:09:17;21.90;97.70
48988;DHT22;34799;51.440;-2.534;2023-06-26T12:11:46;22.10;98.00
48988;DHT22;34799;51.440;-2.534;2023-06-26T12:14:17;21.90;97.00
48988;DHT22;34799;51.440;-2.534;2023-06-26T12:16:46;21.80;97.30
48988;DHT22;34799;51.440;-2.534;2023-06-26T12:19:14;21.80;97.60
48988;DHT22;34799;51.440;-2.534;2023-06-26T12:24:09;21.90;97.90
48988;DHT22;34799;51.440;-2.534;2023-06-26T12:26:45;21.90;97.50
48988;DHT22;34799;51.440;-2.534;2023-06-26T12:29:14;22.30;97.80
48988;DHT22;34799;51.440;-2.534;2023-06-26T12:31:44;22.50;97.30
48988;DHT22;34799;51.440;-2.534;2023-06-26T12:34:15;22.60;96.90
48988;DHT22;34799;51.440;-2.534;2023-06-26T12:36:48;22.50;95.90
48988;DHT22;34799;51.440;-2.534;2023-06-26T12:39:18;22.20;95.20
48988;DHT22;34799;51.440;-2.534;2023-06-26T12:41:46;22.10;96.30
48988;DHT22;34799;51.440;-2.534;2023-06-26T12:46:54;22.20;96.70
48988;DHT22;34799;51.440;-2.534;2023-06-26T12:49:36;22.20;96.40
48988;DHT22;34799;51.440;-2.534;2023-06-26T12:52:12;22.10;96.60
48988;DHT22;34799;51.440;-2.534;2023-06-26T12:54:42;22.20;96.40
48988;DHT22;34799;51.440;-2.534;2023-06-26T12:57:10;22.00;95.60
48988;DHT22;34799;51.440;-2.534;2023-06-26T12:59:37;22.10;95.80
48988;DHT22;34799;51.440;-2.534;2023-06-26T13:02:05;22.10;95.80
48988;DHT22;34799;51.440;-2.534;2023-06-26T13:04:32;21.90;95.80
48988;DHT22;34799;51.440;-2.534;2023-06-26T13:06:59;21.80;95.70
48988;DHT22;34799;51.440;-2.534;2023-06-26T13:09:31;22.00;95.10
48988;DHT22;34799;51.440;-2.534;2023-06-26T13:12:01;22.10;94.80
48988;DHT22;34799;51.440;-2.534;2023-06-26T13:14:31;22.10;95.20
48988;DHT22;34799;51.440;-2.534;2023-06-26T13:16:58;22.10;95.70
48988;DHT22;34799;51.440;-2.534;2023-06-26T13:19:25;22.20;95.10
48988;DHT22;34799;51.440;-2.534;2023-06-26T13:21:52;22.40;95.00
48988;DHT22;34799;51.440;-2.534;2023-06-26T13:24:19;22.40;95.10
48988;DHT22;34799;51.440;-2.534;2023-06-26T13:26:46;22.30;95.40
48988;DHT22;34799;51.440;-2.534;2023-06-26T13:29:14;22.10;94.90
48988;DHT22;34799;51.440;-2.534;2023-06-26T13:31:42;22.00;95.30
48988;DHT22;34799;51.440;-2.534;2023-06-26T13:34:20;22.00;95.40
48988;DHT22;34799;51.440;-2.534;2023-06-26T13:36:49;21.90;95.20
48988;DHT22;34799;51.440;-2.534;2023-06-26T13:39:16;22.00;95.30
48988;DHT22;34799;51.440;-2.534;2023-06-26T13:41:43;22.10;95.40
48988;DHT22;34799;51.440;-2.534;2023-06-26T13:44:10;22.20;95.90
48988;DHT22;34799;51.440;-2.534;2023-06-26T13:46:38;22.20;95.30
48988;DHT22;34799;51.440;-2.534;2023-06-26T13:49:05;21.90;95.80
48988;DHT22;34799;51.440;-2.534;2023-06-26T13:51:32;22.00;95.60
48988;DHT22;34799;51.440;-2.534;2023-06-26T13:53:59;22.20;95.60
48988;DHT22;34799;51.440;-2.534;2023-06-26T13:56:27;22.40;95.50
48988;DHT22;34799;51.440;-2.534;2023-06-26T13:58:57;22.60;95.30
48988;DHT22;34799;51.440;-2.534;2023-06-26T14:01:25;22.70;95.20
48988;DHT22;34799;51.440;-2.534;2023-06-26T14:03:54;23.00;94.90
48988;DHT22;34799;51.440;-2.534;2023-06-26T14:06:22;23.10;94.90
48988;DHT22;34799;51.440;-2.534;2023-06-26T14:08:49;23.20;94.90
48988;DHT22;34799;51.440;-2.534;2023-06-26T14:11:18;23.20;95.10
48988;DHT22;34799;51.440;-2.534;2023-06-26T14:13:45;23.00;94.80
48988;DHT22;34799;51.440;-2.534;2023-06-26T14:16:12;22.90;95.10
48988;DHT22;34799;51.440;-2.534;2023-06-26T14:18:40;22.90;95.40
48988;DHT22;34799;51.440;-2.534;2023-06-26T14:21:07;23.00;95.50
48988;DHT22;34799;51.440;-2.534;2023-06-26T14:23:34;23.00;95.30
48988;DHT22;34799;51.440;-2.534;2023-06-26T14:26:01;22.90;95.20
48988;DHT22;34799;51.440;-2.534;2023-06-26T14:28:28;22.80;95.50
48988;DHT22;34799;51.440;-2.534;2023-06-26T14:30:55;23.00;95.70
48988;DHT22;34799;51.440;-2.534;2023-06-26T14:33:22;23.30;95.80
48988;DHT22;34799;51.440;-2.534;2023-06-26T14:35:49;23.40;95.70
48988;DHT22;34799;51.440;-2.534;2023-06-26T14:38:17;23.50;95.60
48988;DHT22;34799;51.440;-2.534;2023-06-26T14:40:44;23.60;95.30
48988;DHT22;34799;51.440;-2.534;2023-06-26T14:43:11;23.70;95.10
48988;DHT22;34799;51.440;-2.534;2023-06-26T14:45:38;23.70;95.10
48988;DHT22;34799;51.440;-2.534;2023-06-26T14:48:05;23.50;94.90
48988;DHT22;34799;51.440;-2.534;2023-06-26T14:50:33;23.30;95.20
48988;DHT22;34799;51.440;-2.534;2023-06-26T14:53:00;23.50;95.30
48988;DHT22;34799;51.440;-2.534;2023-06-26T14:55:27;23.40;94.70
48988;DHT22;34799;51.440;-2.534;2023-06-26T14:57:54;23.40;95.00
48988;DHT22;34799;51.440;-2.534;2023-06-26T15:00:21;23.30;95.70
48988;DHT22;34799;51.440;-2.534;2023-06-26T15:02:48;23.50;95.50
48988;DHT22;34799;51.440;-2.534;2023-06-26T15:05:16;23.80;95.60
48988;DHT22;34799;51.440;-2.534;2023-06-26T15:07:43;23.80;94.90
48988;DHT22;34799;51.440;-2.534;2023-06-26T15:10:10;23.80;94.90
48988;DHT22;34799;51.440;-2.534;2023-06-26T15:12:37;23.60;95.00
48988;DHT22;34799;51.440;-2.534;2023-06-26T15:15:04;23.30;95.50
48988;DHT22;34799;51.440;-2.534;2023-06-26T15:17:33;23.40;95.00
48988;DHT22;34799;51.440;-2.534;2023-06-26T15:20:02;23.40;95.40
48988;DHT22;34799;51.440;-2.534;2023-06-26T15:22:29;23.70;95.60
48988;DHT22;34799;51.440;-2.534;2023-06-26T15:24:56;23.80;95.00
48988;DHT22;34799;51.440;-2.534;2023-06-26T15:27:23;23.80;95.10
48988;DHT22;34799;51.440;-2.534;2023-06-26T15:29:51;23.60;95.40
48988;DHT22;34799;51.440;-2.534;2023-06-26T15:32:18;23.70;95.00
48988;DHT22;34799;51.440;-2.534;2023-06-26T15:34:46;23.70;94.70
48988;DHT22;34799;51.440;-2.534;2023-06-26T15:37:13;23.50;94.80
48988;DHT22;34799;51.440;-2.534;2023-06-26T15:39:42;23.60;94.90
48988;DHT22;34799;51.440;-2.534;2023-06-26T15:42:09;23.80;94.90
48988;DHT22;34799;51.440;-2.534;2023-06-26T15:44:36;23.80;94.60
48988;DHT22;34799;51.440;-2.534;2023-06-26T15:47:03;23.70;94.90
48988;DHT22;34799;51.440;-2.534;2023-06-26T15:49:30;23.90;95.10
48988;DHT22;34799;51.440;-2.534;2023-06-26T15:51:57;23.90;94.80
48988;DHT22;34799;51.440;-2.534;2023-06-26T15:54:25;24.10;95.00